Quincy, CA (95971)

12:20 AM PDT on September 04, 2015 (GMT -0700)
Mt. Hough Estates | | Change Station
CLOSE
Current Station
Personal Weather Station
Location: Greenville, CA
Elevation: 3550 ft
Nearby Weather Stations

Elev 3550 ft 40.12 °N, 120.90 °W | Updated 23 seconds ago

Clear
Clear
47.3 °F
Feels Like 47 °F
N
0.0
Wind Variable Wind from NNW
Gusts 0.0 mph

Today
High -- | Low -- °F
--% Chance of Precip.
Yesterday
High -- | Low -- °F
Precip. -- in
6:34 AM 7:30 PM
Waning Gibbous, 62% visible
Pressure 29.79 in
Visibility 10.0 miles
Clouds Clear
Windchill 47 °F
Dew Point 33 °F
Humidity 57%
Rainfall 0.00 in
Snow Depth Not available.
UV 0 out of 12
Pollen 8.40 out of 12
Air Quality Not available.
Flu Activity Not available.
METAR KBLU 040652Z AUTO 11003KT 10SM CLR 12/05 A2997 RMK AO2 SLP088 T01170050
Pressure 29.79 in
Visibility 10.0 miles
Clouds Clear
Windchill 47 °F
Dew Point 33 °F
Humidity 57%
Rainfall 0.00 in
Snow Depth Not available.
UV 0 out of 12
Pollen 8.40 out of 12
Air Quality Not available.
Flu Activity Not available.
METAR KBLU 040652Z AUTO 11003KT 10SM CLR 12/05 A2997 RMK AO2 SLP088 T01170050

10-Day Weather Forecast

×

Almanac

Astronomy

Sep. 04, 2015 Rise Set
Actual Time
Civil Twilight
Nautical Twilight
Astronomical Twilight
Moon
Length of Visible Light
Length of Day
Tomorrow will be .
, % of the Moon is Illuminated

Today's Extremes

State Highs State Lows

Community

WunderPhotos

Upload Photos

1,852,132 photos uploaded!

WunderBlogs® & News

Nearby

Air Quality

  Air Quality AQ Index Pollutant
Not available.

Snow Depth

Station Depth Elevation

Earthquake Activity

City Distance Mag. Time & Date
Minimum magnitude displayed is 2.5.

Coastal Water Temperatures

Place Temperature

Stations

Nearby Weather Stations

Station Location Temp. Windchill Dew Point Humidity Wind Precip. Elev Updated Type